sensor_id;sensor_type;location;lat;lon;timestamp;P1;durP1;ratioP1;P2;durP2;ratioP2
15624;SDS011;7912;51.376;6.126;2024-03-02T00:00:39;1.97;;;1.40;;
15624;SDS011;7912;51.376;6.126;2024-03-02T00:03:07;1.73;;;1.10;;
15624;SDS011;7912;51.376;6.126;2024-03-02T00:05:36;2.10;;;1.40;;
15624;SDS011;7912;51.376;6.126;2024-03-02T00:08:04;2.10;;;1.30;;
15624;SDS011;7912;51.376;6.126;2024-03-02T00:10:37;2.07;;;1.40;;
15624;SDS011;7912;51.376;6.126;2024-03-02T00:15:56;2.03;;;1.33;;
15624;SDS011;7912;51.376;6.126;2024-03-02T00:20:58;2.50;;;1.70;;
15624;SDS011;7912;51.376;6.126;2024-03-02T00:23:27;1.80;;;1.40;;
15624;SDS011;7912;51.376;6.126;2024-03-02T00:25:57;1.90;;;1.30;;
15624;SDS011;7912;51.376;6.126;2024-03-02T00:28:32;2.20;;;1.43;;
15624;SDS011;7912;51.376;6.126;2024-03-02T00:31:09;2.83;;;1.47;;
15624;SDS011;7912;51.376;6.126;2024-03-02T00:33:45;3.67;;;1.50;;
15624;SDS011;7912;51.376;6.126;2024-03-02T00:36:15;1.53;;;1.20;;
15624;SDS011;7912;51.376;6.126;2024-03-02T00:38:52;1.73;;;1.27;;
15624;SDS011;7912;51.376;6.126;2024-03-02T00:41:24;1.33;;;1.20;;
15624;SDS011;7912;51.376;6.126;2024-03-02T00:43:59;1.43;;;1.20;;
15624;SDS011;7912;51.376;6.126;2024-03-02T00:46:33;2.27;;;1.20;;
15624;SDS011;7912;51.376;6.126;2024-03-02T00:51:46;1.70;;;1.40;;
15624;SDS011;7912;51.376;6.126;2024-03-02T00:54:19;1.60;;;1.20;;
15624;SDS011;7912;51.376;6.126;2024-03-02T00:56:53;2.40;;;1.30;;
15624;SDS011;7912;51.376;6.126;2024-03-02T00:59:24;1.93;;;1.10;;
15624;SDS011;7912;51.376;6.126;2024-03-02T01:01:51;2.03;;;1.30;;
15624;SDS011;7912;51.376;6.126;2024-03-02T01:04:18;1.93;;;1.10;;
15624;SDS011;7912;51.376;6.126;2024-03-02T01:06:46;1.70;;;1.20;;
15624;SDS011;7912;51.376;6.126;2024-03-02T01:09:14;1.67;;;1.40;;
15624;SDS011;7912;51.376;6.126;2024-03-02T01:11:43;1.73;;;1.37;;
15624;SDS011;7912;51.376;6.126;2024-03-02T01:14:10;1.73;;;1.43;;
15624;SDS011;7912;51.376;6.126;2024-03-02T01:16:37;1.67;;;1.07;;
15624;SDS011;7912;51.376;6.126;2024-03-02T01:19:04;1.50;;;1.10;;
15624;SDS011;7912;51.376;6.126;2024-03-02T01:21:32;2.23;;;1.40;;
15624;SDS011;7912;51.376;6.126;2024-03-02T01:23:59;2.33;;;1.40;;
15624;SDS011;7912;51.376;6.126;2024-03-02T01:26:27;1.53;;;1.10;;
15624;SDS011;7912;51.376;6.126;2024-03-02T01:28:54;2.17;;;1.40;;
15624;SDS011;7912;51.376;6.126;2024-03-02T01:31:21;1.90;;;1.40;;
15624;SDS011;7912;51.376;6.126;2024-03-02T01:33:48;1.63;;;1.40;;
15624;SDS011;7912;51.376;6.126;2024-03-02T01:36:16;1.63;;;1.13;;
15624;SDS011;7912;51.376;6.126;2024-03-02T01:38:43;1.27;;;1.10;;
15624;SDS011;7912;51.376;6.126;2024-03-02T01:41:10;1.20;;;0.83;;
15624;SDS011;7912;51.376;6.126;2024-03-02T01:43:38;1.70;;;1.00;;
15624;SDS011;7912;51.376;6.126;2024-03-02T01:46:07;0.80;;;0.80;;
15624;SDS011;7912;51.376;6.126;2024-03-02T01:48:35;0.80;;;0.60;;
15624;SDS011;7912;51.376;6.126;2024-03-02T01:51:03;2.17;;;0.80;;
15624;SDS011;7912;51.376;6.126;2024-03-02T01:53:32;0.60;;;0.60;;
15624;SDS011;7912;51.376;6.126;2024-03-02T01:56:01;0.50;;;0.50;;
15624;SDS011;7912;51.376;6.126;2024-03-02T01:58:28;1.07;;;0.60;;
15624;SDS011;7912;51.376;6.126;2024-03-02T02:00:55;0.57;;;0.50;;
15624;SDS011;7912;51.376;6.126;2024-03-02T02:03:22;0.60;;;0.60;;
15624;SDS011;7912;51.376;6.126;2024-03-02T02:05:50;1.60;;;0.60;;
15624;SDS011;7912;51.376;6.126;2024-03-02T02:08:17;0.30;;;0.30;;
15624;SDS011;7912;51.376;6.126;2024-03-02T02:10:44;0.50;;;0.50;;
15624;SDS011;7912;51.376;6.126;2024-03-02T02:13:11;0.50;;;0.50;;
15624;SDS011;7912;51.376;6.126;2024-03-02T02:15:39;0.90;;;0.70;;
15624;SDS011;7912;51.376;6.126;2024-03-02T02:18:06;0.60;;;0.47;;
15624;SDS011;7912;51.376;6.126;2024-03-02T02:20:34;0.50;;;0.50;;
15624;SDS011;7912;51.376;6.126;2024-03-02T02:23:01;0.50;;;0.50;;
15624;SDS011;7912;51.376;6.126;2024-03-02T02:25:32;1.23;;;0.70;;
15624;SDS011;7912;51.376;6.126;2024-03-02T02:27:59;0.50;;;0.50;;
15624;SDS011;7912;51.376;6.126;2024-03-02T02:30:28;0.90;;;0.57;;
15624;SDS011;7912;51.376;6.126;2024-03-02T02:32:58;0.50;;;0.50;;
15624;SDS011;7912;51.376;6.126;2024-03-02T02:35:26;0.60;;;0.60;;
15624;SDS011;7912;51.376;6.126;2024-03-02T02:37:54;0.57;;;0.57;;
15624;SDS011;7912;51.376;6.126;2024-03-02T02:40:23;1.33;;;1.00;;
15624;SDS011;7912;51.376;6.126;2024-03-02T02:42:50;0.40;;;0.40;;
15624;SDS011;7912;51.376;6.126;2024-03-02T02:45:20;0.60;;;0.57;;
15624;SDS011;7912;51.376;6.126;2024-03-02T02:47:48;0.70;;;0.50;;
15624;SDS011;7912;51.376;6.126;2024-03-02T02:50:15;1.90;;;0.50;;
15624;SDS011;7912;51.376;6.126;2024-03-02T02:52:43;1.57;;;0.70;;
15624;SDS011;7912;51.376;6.126;2024-03-02T02:55:11;0.47;;;0.40;;
15624;SDS011;7912;51.376;6.126;2024-03-02T02:57:40;1.43;;;0.60;;
15624;SDS011;7912;51.376;6.126;2024-03-02T03:00:13;2.20;;;0.60;;
15624;SDS011;7912;51.376;6.126;2024-03-02T03:02:44;0.60;;;0.60;;
15624;SDS011;7912;51.376;6.126;2024-03-02T03:05:16;0.87;;;0.60;;
15624;SDS011;7912;51.376;6.126;2024-03-02T03:07:44;0.80;;;0.60;;
15624;SDS011;7912;51.376;6.126;2024-03-02T03:10:12;1.67;;;0.67;;
15624;SDS011;7912;51.376;6.126;2024-03-02T03:12:41;1.23;;;0.70;;
15624;SDS011;7912;51.376;6.126;2024-03-02T03:15:10;0.73;;;0.40;;
15624;SDS011;7912;51.376;6.126;2024-03-02T03:17:38;0.50;;;0.50;;
15624;SDS011;7912;51.376;6.126;2024-03-02T03:20:06;0.57;;;0.50;;
15624;SDS011;7912;51.376;6.126;2024-03-02T03:22:37;0.90;;;0.50;;
15624;SDS011;7912;51.376;6.126;2024-03-02T03:25:05;0.37;;;0.37;;
15624;SDS011;7912;51.376;6.126;2024-03-02T03:27:36;0.63;;;0.60;;
15624;SDS011;7912;51.376;6.126;2024-03-02T03:30:03;0.60;;;0.50;;
15624;SDS011;7912;51.376;6.126;2024-03-02T03:32:33;0.60;;;0.50;;
15624;SDS011;7912;51.376;6.126;2024-03-02T03:35:00;0.80;;;0.57;;
15624;SDS011;7912;51.376;6.126;2024-03-02T03:37:28;0.60;;;0.60;;
15624;SDS011;7912;51.376;6.126;2024-03-02T03:40:04;1.03;;;0.50;;
15624;SDS011;7912;51.376;6.126;2024-03-02T03:42:41;0.50;;;0.50;;
15624;SDS011;7912;51.376;6.126;2024-03-02T03:45:08;0.90;;;0.60;;
15624;SDS011;7912;51.376;6.126;2024-03-02T03:47:36;0.60;;;0.50;;
15624;SDS011;7912;51.376;6.126;2024-03-02T03:50:03;0.40;;;0.40;;
15624;SDS011;7912;51.376;6.126;2024-03-02T03:52:34;0.53;;;0.40;;
15624;SDS011;7912;51.376;6.126;2024-03-02T03:55:01;0.33;;;0.33;;
15624;SDS011;7912;51.376;6.126;2024-03-02T03:57:28;0.70;;;0.40;;
15624;SDS011;7912;51.376;6.126;2024-03-02T03:59:55;0.63;;;0.60;;
15624;SDS011;7912;51.376;6.126;2024-03-02T04:02:22;0.50;;;0.50;;
15624;SDS011;7912;51.376;6.126;2024-03-02T04:04:51;0.50;;;0.50;;
15624;SDS011;7912;51.376;6.126;2024-03-02T04:07:18;0.80;;;0.53;;
15624;SDS011;7912;51.376;6.126;2024-03-02T04:09:45;0.70;;;0.50;;
15624;SDS011;7912;51.376;6.126;2024-03-02T04:12:12;0.73;;;0.50;;
15624;SDS011;7912;51.376;6.126;2024-03-02T04:14:39;0.90;;;0.60;;
15624;SDS011;7912;51.376;6.126;2024-03-02T04:17:09;1.00;;;0.70;;
15624;SDS011;7912;51.376;6.126;2024-03-02T04:19:36;1.33;;;0.60;;
15624;SDS011;7912;51.376;6.126;2024-03-02T04:22:03;0.83;;;0.70;;
15624;SDS011;7912;51.376;6.126;2024-03-02T04:24:43;1.20;;;0.80;;
15624;SDS011;7912;51.376;6.126;2024-03-02T04:27:11;1.00;;;0.57;;
15624;SDS011;7912;51.376;6.126;2024-03-02T04:29:38;0.60;;;0.50;;
15624;SDS011;7912;51.376;6.126;2024-03-02T04:32:05;0.60;;;0.60;;
15624;SDS011;7912;51.376;6.126;2024-03-02T04:34:33;1.13;;;0.73;;
15624;SDS011;7912;51.376;6.126;2024-03-02T04:37:00;1.17;;;0.80;;
15624;SDS011;7912;51.376;6.126;2024-03-02T04:39:27;0.90;;;0.80;;
15624;SDS011;7912;51.376;6.126;2024-03-02T04:41:54;0.67;;;0.67;;
15624;SDS011;7912;51.376;6.126;2024-03-02T04:44:21;1.33;;;0.97;;
15624;SDS011;7912;51.376;6.126;2024-03-02T04:46:49;1.20;;;1.10;;
15624;SDS011;7912;51.376;6.126;2024-03-02T04:49:16;1.53;;;1.17;;
15624;SDS011;7912;51.376;6.126;2024-03-02T04:51:43;1.80;;;1.17;;
15624;SDS011;7912;51.376;6.126;2024-03-02T04:54:10;4.60;;;2.40;;
15624;SDS011;7912;51.376;6.126;2024-03-02T04:56:37;2.10;;;1.77;;
15624;SDS011;7912;51.376;6.126;2024-03-02T04:59:11;1.13;;;1.10;;
15624;SDS011;7912;51.376;6.126;2024-03-02T05:01:38;1.03;;;0.93;;
15624;SDS011;7912;51.376;6.126;2024-03-02T05:04:05;1.37;;;0.90;;
15624;SDS011;7912;51.376;6.126;2024-03-02T05:06:32;1.47;;;0.90;;
15624;SDS011;7912;51.376;6.126;2024-03-02T05:08:59;0.63;;;0.57;;
15624;SDS011;7912;51.376;6.126;2024-03-02T05:11:26;1.10;;;1.00;;
15624;SDS011;7912;51.376;6.126;2024-03-02T05:14:06;2.10;;;1.20;;
15624;SDS011;7912;51.376;6.126;2024-03-02T05:16:34;0.80;;;0.80;;
15624;SDS011;7912;51.376;6.126;2024-03-02T05:19:03;3.53;;;1.13;;
15624;SDS011;7912;51.376;6.126;2024-03-02T05:21:32;0.87;;;0.77;;
15624;SDS011;7912;51.376;6.126;2024-03-02T05:24:01;1.20;;;0.83;;
15624;SDS011;7912;51.376;6.126;2024-03-02T05:26:28;1.10;;;0.90;;
15624;SDS011;7912;51.376;6.126;2024-03-02T05:28:55;0.97;;;0.87;;
15624;SDS011;7912;51.376;6.126;2024-03-02T05:31:23;1.07;;;0.97;;
15624;SDS011;7912;51.376;6.126;2024-03-02T05:33:50;0.97;;;0.70;;
15624;SDS011;7912;51.376;6.126;2024-03-02T05:36:23;1.10;;;0.90;;
15624;SDS011;7912;51.376;6.126;2024-03-02T05:38:50;0.80;;;0.70;;
15624;SDS011;7912;51.376;6.126;2024-03-02T05:41:17;1.00;;;0.90;;
15624;SDS011;7912;51.376;6.126;2024-03-02T05:43:45;1.23;;;1.00;;
15624;SDS011;7912;51.376;6.126;2024-03-02T05:49:01;0.90;;;0.70;;
15624;SDS011;7912;51.376;6.126;2024-03-02T05:51:28;1.10;;;0.93;;
15624;SDS011;7912;51.376;6.126;2024-03-02T05:53:56;1.27;;;0.90;;
15624;SDS011;7912;51.376;6.126;2024-03-02T05:56:23;0.70;;;0.70;;
15624;SDS011;7912;51.376;6.126;2024-03-02T05:58:50;1.00;;;0.90;;
15624;SDS011;7912;51.376;6.126;2024-03-02T06:01:36;1.67;;;0.93;;
15624;SDS011;7912;51.376;6.126;2024-03-02T06:04:03;0.90;;;0.83;;
15624;SDS011;7912;51.376;6.126;2024-03-02T06:06:30;1.20;;;0.70;;
15624;SDS011;7912;51.376;6.126;2024-03-02T06:09:03;1.20;;;0.80;;
15624;SDS011;7912;51.376;6.126;2024-03-02T06:11:37;0.70;;;0.70;;
15624;SDS011;7912;51.376;6.126;2024-03-02T06:14:06;0.70;;;0.60;;
15624;SDS011;7912;51.376;6.126;2024-03-02T06:16:35;2.20;;;0.90;;
15624;SDS011;7912;51.376;6.126;2024-03-02T06:19:02;0.70;;;0.63;;
15624;SDS011;7912;51.376;6.126;2024-03-02T06:21:29;1.27;;;0.77;;
15624;SDS011;7912;51.376;6.126;2024-03-02T06:23:56;1.37;;;0.70;;
15624;SDS011;7912;51.376;6.126;2024-03-02T06:26:24;2.33;;;1.00;;
15624;SDS011;7912;51.376;6.126;2024-03-02T06:28:51;0.80;;;0.80;;
15624;SDS011;7912;51.376;6.126;2024-03-02T06:31:18;1.60;;;1.00;;
15624;SDS011;7912;51.376;6.126;2024-03-02T06:33:46;0.80;;;0.80;;
15624;SDS011;7912;51.376;6.126;2024-03-02T06:36:13;0.63;;;0.63;;
15624;SDS011;7912;51.376;6.126;2024-03-02T06:38:42;0.97;;;0.80;;
15624;SDS011;7912;51.376;6.126;2024-03-02T06:41:09;0.70;;;0.60;;
15624;SDS011;7912;51.376;6.126;2024-03-02T06:43:37;0.80;;;0.80;;
15624;SDS011;7912;51.376;6.126;2024-03-02T06:46:05;1.33;;;0.60;;
15624;SDS011;7912;51.376;6.126;2024-03-02T06:48:36;0.77;;;0.77;;
15624;SDS011;7912;51.376;6.126;2024-03-02T06:51:03;1.23;;;0.70;;
15624;SDS011;7912;51.376;6.126;2024-03-02T06:53:30;1.13;;;0.80;;
15624;SDS011;7912;51.376;6.126;2024-03-02T06:55:59;1.53;;;0.80;;
15624;SDS011;7912;51.376;6.126;2024-03-02T06:58:27;0.70;;;0.63;;
15624;SDS011;7912;51.376;6.126;2024-03-02T07:00:54;1.33;;;0.70;;
15624;SDS011;7912;51.376;6.126;2024-03-02T07:03:21;1.13;;;0.70;;
15624;SDS011;7912;51.376;6.126;2024-03-02T07:05:48;0.63;;;0.60;;
15624;SDS011;7912;51.376;6.126;2024-03-02T07:08:15;0.73;;;0.63;;
15624;SDS011;7912;51.376;6.126;2024-03-02T07:10:42;0.80;;;0.80;;
15624;SDS011;7912;51.376;6.126;2024-03-02T07:13:09;0.70;;;0.50;;
15624;SDS011;7912;51.376;6.126;2024-03-02T07:15:37;0.60;;;0.60;;
15624;SDS011;7912;51.376;6.126;2024-03-02T07:18:30;1.17;;;0.80;;
15624;SDS011;7912;51.376;6.126;2024-03-02T07:20:57;0.83;;;0.70;;
15624;SDS011;7912;51.376;6.126;2024-03-02T07:23:27;0.93;;;0.90;;
15624;SDS011;7912;51.376;6.126;2024-03-02T07:25:54;1.27;;;0.70;;
15624;SDS011;7912;51.376;6.126;2024-03-02T07:28:25;0.90;;;0.60;;
15624;SDS011;7912;51.376;6.126;2024-03-02T07:31:03;1.23;;;0.60;;
15624;SDS011;7912;51.376;6.126;2024-03-02T07:33:31;0.80;;;0.80;;
15624;SDS011;7912;51.376;6.126;2024-03-02T07:35:59;0.60;;;0.60;;
15624;SDS011;7912;51.376;6.126;2024-03-02T07:38:30;1.80;;;0.80;;
15624;SDS011;7912;51.376;6.126;2024-03-02T07:41:00;0.90;;;0.70;;
15624;SDS011;7912;51.376;6.126;2024-03-02T07:43:28;2.00;;;0.90;;
15624;SDS011;7912;51.376;6.126;2024-03-02T07:45:55;1.30;;;0.90;;
15624;SDS011;7912;51.376;6.126;2024-03-02T07:48:23;1.50;;;0.80;;
15624;SDS011;7912;51.376;6.126;2024-03-02T07:50:51;1.47;;;0.80;;
15624;SDS011;7912;51.376;6.126;2024-03-02T07:53:18;1.00;;;0.80;;
15624;SDS011;7912;51.376;6.126;2024-03-02T07:55:45;1.77;;;1.30;;
15624;SDS011;7912;51.376;6.126;2024-03-02T07:58:13;1.27;;;0.90;;
15624;SDS011;7912;51.376;6.126;2024-03-02T08:00:40;1.47;;;1.00;;
15624;SDS011;7912;51.376;6.126;2024-03-02T08:03:08;1.20;;;1.00;;
15624;SDS011;7912;51.376;6.126;2024-03-02T08:05:38;2.43;;;0.90;;
15624;SDS011;7912;51.376;6.126;2024-03-02T08:08:05;1.23;;;0.90;;
15624;SDS011;7912;51.376;6.126;2024-03-02T08:10:33;2.07;;;0.90;;
15624;SDS011;7912;51.376;6.126;2024-03-02T08:13:00;0.87;;;0.80;;
15624;SDS011;7912;51.376;6.126;2024-03-02T08:18:13;1.77;;;0.80;;
15624;SDS011;7912;51.376;6.126;2024-03-02T08:20:41;1.23;;;0.70;;
15624;SDS011;7912;51.376;6.126;2024-03-02T08:23:08;0.70;;;0.70;;
15624;SDS011;7912;51.376;6.126;2024-03-02T08:25:35;0.63;;;0.63;;
15624;SDS011;7912;51.376;6.126;2024-03-02T08:28:03;0.90;;;0.70;;
15624;SDS011;7912;51.376;6.126;2024-03-02T08:30:31;3.07;;;0.83;;
15624;SDS011;7912;51.376;6.126;2024-03-02T08:32:58;0.70;;;0.70;;
15624;SDS011;7912;51.376;6.126;2024-03-02T08:35:26;1.03;;;0.70;;
15624;SDS011;7912;51.376;6.126;2024-03-02T08:37:54;1.40;;;0.70;;
15624;SDS011;7912;51.376;6.126;2024-03-02T08:40:21;2.00;;;0.70;;
15624;SDS011;7912;51.376;6.126;2024-03-02T08:42:49;1.57;;;0.90;;
15624;SDS011;7912;51.376;6.126;2024-03-02T08:45:16;1.00;;;0.80;;
15624;SDS011;7912;51.376;6.126;2024-03-02T08:47:43;1.63;;;0.73;;
15624;SDS011;7912;51.376;6.126;2024-03-02T08:50:11;3.17;;;0.73;;
15624;SDS011;7912;51.376;6.126;2024-03-02T08:52:38;1.80;;;0.77;;
15624;SDS011;7912;51.376;6.126;2024-03-02T08:55:05;2.27;;;0.70;;
15624;SDS011;7912;51.376;6.126;2024-03-02T08:57:36;1.33;;;0.70;;
15624;SDS011;7912;51.376;6.126;2024-03-02T09:00:04;1.67;;;0.73;;
15624;SDS011;7912;51.376;6.126;2024-03-02T09:02:32;1.10;;;0.70;;
15624;SDS011;7912;51.376;6.126;2024-03-02T09:04:59;1.80;;;0.90;;
15624;SDS011;7912;51.376;6.126;2024-03-02T09:07:27;1.57;;;0.77;;
15624;SDS011;7912;51.376;6.126;2024-03-02T09:09:54;1.07;;;0.90;;
15624;SDS011;7912;51.376;6.126;2024-03-02T09:12:21;1.23;;;0.80;;
15624;SDS011;7912;51.376;6.126;2024-03-02T09:14:49;0.97;;;0.77;;
15624;SDS011;7912;51.376;6.126;2024-03-02T09:17:16;2.23;;;0.93;;
15624;SDS011;7912;51.376;6.126;2024-03-02T09:19:43;1.63;;;0.73;;
15624;SDS011;7912;51.376;6.126;2024-03-02T09:22:10;1.50;;;0.80;;
15624;SDS011;7912;51.376;6.126;2024-03-02T09:24:37;1.23;;;0.80;;
15624;SDS011;7912;51.376;6.126;2024-03-02T09:27:04;1.47;;;0.80;;
15624;SDS011;7912;51.376;6.126;2024-03-02T09:29:32;1.57;;;0.80;;
15624;SDS011;7912;51.376;6.126;2024-03-02T09:31:59;1.10;;;0.83;;
15624;SDS011;7912;51.376;6.126;2024-03-02T09:34:26;1.27;;;0.70;;
15624;SDS011;7912;51.376;6.126;2024-03-02T09:36:53;1.73;;;0.80;;
15624;SDS011;7912;51.376;6.126;2024-03-02T09:39:20;1.90;;;0.87;;
15624;SDS011;7912;51.376;6.126;2024-03-02T09:41:48;1.80;;;0.77;;
15624;SDS011;7912;51.376;6.126;2024-03-02T09:44:16;3.00;;;1.17;;
15624;SDS011;7912;51.376;6.126;2024-03-02T09:46:43;2.13;;;1.10;;
15624;SDS011;7912;51.376;6.126;2024-03-02T09:49:15;1.40;;;1.00;;
15624;SDS011;7912;51.376;6.126;2024-03-02T09:52:04;2.03;;;0.90;;
15624;SDS011;7912;51.376;6.126;2024-03-02T09:54:31;2.93;;;0.87;;
15624;SDS011;7912;51.376;6.126;2024-03-02T09:56:59;1.90;;;0.90;;
15624;SDS011;7912;51.376;6.126;2024-03-02T09:59:29;1.70;;;1.00;;
15624;SDS011;7912;51.376;6.126;2024-03-02T10:04:42;2.00;;;1.03;;
15624;SDS011;7912;51.376;6.126;2024-03-02T10:07:14;0.90;;;0.80;;
15624;SDS011;7912;51.376;6.126;2024-03-02T10:09:44;1.10;;;0.80;;
15624;SDS011;7912;51.376;6.126;2024-03-02T10:12:14;1.60;;;0.70;;
15624;SDS011;7912;51.376;6.126;2024-03-02T10:14:43;1.20;;;0.90;;
15624;SDS011;7912;51.376;6.126;2024-03-02T10:17:12;2.40;;;0.80;;
15624;SDS011;7912;51.376;6.126;2024-03-02T10:19:42;1.03;;;0.80;;
15624;SDS011;7912;51.376;6.126;2024-03-02T10:22:09;1.23;;;0.90;;
15624;SDS011;7912;51.376;6.126;2024-03-02T10:27:08;2.07;;;1.00;;
15624;SDS011;7912;51.376;6.126;2024-03-02T10:29:46;2.13;;;1.23;;
15624;SDS011;7912;51.376;6.126;2024-03-02T10:32:15;1.27;;;1.10;;
15624;SDS011;7912;51.376;6.126;2024-03-02T10:34:44;1.10;;;0.80;;
15624;SDS011;7912;51.376;6.126;2024-03-02T10:37:14;2.33;;;1.10;;
15624;SDS011;7912;51.376;6.126;2024-03-02T10:39:43;1.80;;;0.90;;
15624;SDS011;7912;51.376;6.126;2024-03-02T10:42:14;1.57;;;1.30;;
15624;SDS011;7912;51.376;6.126;2024-03-02T10:44:42;1.20;;;0.90;;
15624;SDS011;7912;51.376;6.126;2024-03-02T10:47:09;1.70;;;1.17;;
15624;SDS011;7912;51.376;6.126;2024-03-02T10:49:41;1.93;;;1.00;;
15624;SDS011;7912;51.376;6.126;2024-03-02T10:52:10;1.67;;;1.03;;
15624;SDS011;7912;51.376;6.126;2024-03-02T10:54:37;1.33;;;1.00;;
15624;SDS011;7912;51.376;6.126;2024-03-02T10:57:07;1.80;;;1.10;;
15624;SDS011;7912;51.376;6.126;2024-03-02T10:59:37;2.40;;;1.00;;
15624;SDS011;7912;51.376;6.126;2024-03-02T11:02:13;2.00;;;0.83;;
15624;SDS011;7912;51.376;6.126;2024-03-02T11:04:42;1.80;;;1.00;;
15624;SDS011;7912;51.376;6.126;2024-03-02T11:07:11;1.43;;;1.20;;
15624;SDS011;7912;51.376;6.126;2024-03-02T11:09:59;1.50;;;1.00;;
15624;SDS011;7912;51.376;6.126;2024-03-02T11:15:09;1.23;;;0.93;;
15624;SDS011;7912;51.376;6.126;2024-03-02T11:17:42;1.70;;;0.90;;
15624;SDS011;7912;51.376;6.126;2024-03-02T11:20:11;1.17;;;0.80;;
15624;SDS011;7912;51.376;6.126;2024-03-02T11:22:39;1.57;;;1.07;;
15624;SDS011;7912;51.376;6.126;2024-03-02T11:25:18;2.70;;;1.20;;
15624;SDS011;7912;51.376;6.126;2024-03-02T11:33:05;2.53;;;1.10;;
15624;SDS011;7912;51.376;6.126;2024-03-02T11:35:41;1.93;;;1.17;;
15624;SDS011;7912;51.376;6.126;2024-03-02T11:38:14;2.57;;;1.30;;
15624;SDS011;7912;51.376;6.126;2024-03-02T11:40:41;1.70;;;1.30;;
15624;SDS011;7912;51.376;6.126;2024-03-02T11:43:09;2.50;;;1.40;;
15624;SDS011;7912;51.376;6.126;2024-03-02T11:45:37;1.60;;;1.00;;
15624;SDS011;7912;51.376;6.126;2024-03-02T11:48:12;1.67;;;1.00;;
15624;SDS011;7912;51.376;6.126;2024-03-02T11:50:42;3.10;;;1.07;;
15624;SDS011;7912;51.376;6.126;2024-03-02T11:53:16;2.10;;;0.90;;
15624;SDS011;7912;51.376;6.126;2024-03-02T11:55:44;1.50;;;0.90;;
15624;SDS011;7912;51.376;6.126;2024-03-02T11:58:16;3.30;;;1.20;;
15624;SDS011;7912;51.376;6.126;2024-03-02T12:00:50;2.43;;;1.20;;
15624;SDS011;7912;51.376;6.126;2024-03-02T12:03:20;1.63;;;1.10;;
15624;SDS011;7912;51.376;6.126;2024-03-02T12:05:50;1.90;;;0.97;;
15624;SDS011;7912;51.376;6.126;2024-03-02T12:08:17;1.57;;;1.03;;
15624;SDS011;7912;51.376;6.126;2024-03-02T12:11:00;1.97;;;1.00;;
15624;SDS011;7912;51.376;6.126;2024-03-02T12:13:30;1.70;;;0.97;;
15624;SDS011;7912;51.376;6.126;2024-03-02T12:16:04;1.67;;;1.10;;
15624;SDS011;7912;51.376;6.126;2024-03-02T12:18:32;1.20;;;0.97;;
15624;SDS011;7912;51.376;6.126;2024-03-02T12:20:59;2.50;;;1.30;;
15624;SDS011;7912;51.376;6.126;2024-03-02T12:23:29;2.10;;;1.23;;
15624;SDS011;7912;51.376;6.126;2024-03-02T12:25:56;3.60;;;1.27;;
15624;SDS011;7912;51.376;6.126;2024-03-02T12:28:23;1.27;;;1.03;;
15624;SDS011;7912;51.376;6.126;2024-03-02T12:30:51;1.77;;;0.73;;
15624;SDS011;7912;51.376;6.126;2024-03-02T12:33:20;1.30;;;0.90;;
15624;SDS011;7912;51.376;6.126;2024-03-02T12:35:48;1.20;;;1.03;;
15624;SDS011;7912;51.376;6.126;2024-03-02T12:38:16;2.13;;;1.10;;
15624;SDS011;7912;51.376;6.126;2024-03-02T12:40:43;1.57;;;1.10;;
15624;SDS011;7912;51.376;6.126;2024-03-02T12:43:10;1.77;;;1.10;;
15624;SDS011;7912;51.376;6.126;2024-03-02T12:45:38;3.40;;;1.30;;
15624;SDS011;7912;51.376;6.126;2024-03-02T12:48:05;3.00;;;1.30;;
15624;SDS011;7912;51.376;6.126;2024-03-02T12:50:33;1.80;;;1.20;;
15624;SDS011;7912;51.376;6.126;2024-03-02T12:53:00;2.60;;;1.43;;
15624;SDS011;7912;51.376;6.126;2024-03-02T12:55:28;2.10;;;1.30;;
15624;SDS011;7912;51.376;6.126;2024-03-02T12:57:56;1.60;;;1.17;;
15624;SDS011;7912;51.376;6.126;2024-03-02T13:00:26;1.60;;;1.27;;
15624;SDS011;7912;51.376;6.126;2024-03-02T13:02:53;2.53;;;1.30;;
15624;SDS011;7912;51.376;6.126;2024-03-02T13:05:32;2.33;;;0.90;;
15624;SDS011;7912;51.376;6.126;2024-03-02T13:07:59;1.87;;;1.20;;
15624;SDS011;7912;51.376;6.126;2024-03-02T13:10:30;1.47;;;1.07;;
15624;SDS011;7912;51.376;6.126;2024-03-02T13:12:58;1.87;;;1.10;;
15624;SDS011;7912;51.376;6.126;2024-03-02T13:15:27;2.67;;;1.10;;
15624;SDS011;7912;51.376;6.126;2024-03-02T13:17:58;2.77;;;1.13;;
15624;SDS011;7912;51.376;6.126;2024-03-02T13:20:31;2.60;;;1.10;;
15624;SDS011;7912;51.376;6.126;2024-03-02T13:22:59;1.77;;;1.20;;
15624;SDS011;7912;51.376;6.126;2024-03-02T13:25:26;1.90;;;1.30;;
15624;SDS011;7912;51.376;6.126;2024-03-02T13:27:55;2.10;;;1.33;;
15624;SDS011;7912;51.376;6.126;2024-03-02T13:30:23;2.03;;;1.10;;
15624;SDS011;7912;51.376;6.126;2024-03-02T13:32:50;2.17;;;1.40;;
15624;SDS011;7912;51.376;6.126;2024-03-02T13:35:19;2.13;;;1.20;;
15624;SDS011;7912;51.376;6.126;2024-03-02T13:41:57;3.37;;;1.20;;
15624;SDS011;7912;51.376;6.126;2024-03-02T13:44:31;1.10;;;1.00;;
15624;SDS011;7912;51.376;6.126;2024-03-02T13:46:59;1.83;;;1.30;;
15624;SDS011;7912;51.376;6.126;2024-03-02T13:49:27;1.83;;;1.13;;
15624;SDS011;7912;51.376;6.126;2024-03-02T13:52:04;1.10;;;1.00;;
15624;SDS011;7912;51.376;6.126;2024-03-02T13:54:40;1.40;;;0.87;;
15624;SDS011;7912;51.376;6.126;2024-03-02T13:57:09;2.40;;;1.20;;
15624;SDS011;7912;51.376;6.126;2024-03-02T13:59:38;1.60;;;1.00;;
15624;SDS011;7912;51.376;6.126;2024-03-02T14:06:17;3.80;;;1.40;;
15624;SDS011;7912;51.376;6.126;2024-03-02T14:08:44;1.20;;;1.10;;
15624;SDS011;7912;51.376;6.126;2024-03-02T14:11:17;2.43;;;1.30;;
15624;SDS011;7912;51.376;6.126;2024-03-02T14:13:45;2.63;;;1.40;;
15624;SDS011;7912;51.376;6.126;2024-03-02T14:16:20;1.40;;;1.30;;
15624;SDS011;7912;51.376;6.126;2024-03-02T14:18:48;1.43;;;1.07;;
15624;SDS011;7912;51.376;6.126;2024-03-02T14:21:17;1.80;;;1.30;;
15624;SDS011;7912;51.376;6.126;2024-03-02T14:27:59;2.70;;;1.40;;
15624;SDS011;7912;51.376;6.126;2024-03-02T14:34:14;1.93;;;1.30;;
15624;SDS011;7912;51.376;6.126;2024-03-02T14:36:47;2.37;;;1.23;;
15624;SDS011;7912;51.376;6.126;2024-03-02T14:39:17;2.80;;;1.50;;
15624;SDS011;7912;51.376;6.126;2024-03-02T14:45:52;1.57;;;1.30;;
15624;SDS011;7912;51.376;6.126;2024-03-02T15:07:47;3.17;;;1.40;;
15624;SDS011;7912;51.376;6.126;2024-03-02T15:11:17;2.73;;;1.30;;
15624;SDS011;7912;51.376;6.126;2024-03-02T15:13:53;1.87;;;1.37;;
15624;SDS011;7912;51.376;6.126;2024-03-02T15:17:49;1.77;;;1.00;;
15624;SDS011;7912;51.376;6.126;2024-03-02T15:24:21;2.70;;;1.40;;
15624;SDS011;7912;51.376;6.126;2024-03-02T15:26:56;2.83;;;1.40;;
15624;SDS011;7912;51.376;6.126;2024-03-02T15:29:37;2.93;;;1.50;;
15624;SDS011;7912;51.376;6.126;2024-03-02T15:32:30;1.90;;;1.30;;
15624;SDS011;7912;51.376;6.126;2024-03-02T15:35:03;1.57;;;1.30;;
15624;SDS011;7912;51.376;6.126;2024-03-02T15:38:13;2.47;;;1.40;;
15624;SDS011;7912;51.376;6.126;2024-03-02T15:41:03;2.03;;;1.20;;
15624;SDS011;7912;51.376;6.126;2024-03-02T15:43:48;2.63;;;1.20;;
15624;SDS011;7912;51.376;6.126;2024-03-02T15:46:27;1.53;;;1.20;;
15624;SDS011;7912;51.376;6.126;2024-03-02T15:49:26;3.40;;;1.50;;
15624;SDS011;7912;51.376;6.126;2024-03-02T15:56:55;2.33;;;1.10;;
15624;SDS011;7912;51.376;6.126;2024-03-02T16:00:18;2.40;;;1.40;;
15624;SDS011;7912;51.376;6.126;2024-03-02T16:03:38;1.60;;;1.13;;
15624;SDS011;7912;51.376;6.126;2024-03-02T16:07:11;1.47;;;1.30;;
15624;SDS011;7912;51.376;6.126;2024-03-02T16:10:12;1.47;;;1.20;;
15624;SDS011;7912;51.376;6.126;2024-03-02T16:13:01;2.27;;;1.40;;
15624;SDS011;7912;51.376;6.126;2024-03-02T16:16:06;1.60;;;1.37;;
15624;SDS011;7912;51.376;6.126;2024-03-02T16:19:02;2.33;;;1.33;;
15624;SDS011;7912;51.376;6.126;2024-03-02T16:22:06;1.70;;;1.33;;
15624;SDS011;7912;51.376;6.126;2024-03-02T16:25:03;1.70;;;1.43;;
15624;SDS011;7912;51.376;6.126;2024-03-02T16:27:41;1.50;;;1.40;;
15624;SDS011;7912;51.376;6.126;2024-03-02T16:30:21;1.87;;;1.30;;
15624;SDS011;7912;51.376;6.126;2024-03-02T16:33:44;3.07;;;2.20;;
15624;SDS011;7912;51.376;6.126;2024-03-02T16:40:15;1.93;;;1.57;;
15624;SDS011;7912;51.376;6.126;2024-03-02T16:43:01;1.77;;;1.60;;